Time;durP1;ratioP1;P1;durP2;ratioP2;P2;SDS_P1;SDS_P2;PMS_P1;PMS_P2;Temp;Humidity;BMP_temperature;BMP_pressure;BME280_temperature;BME280_humidity;BME280_pressure;Samples;Min_cycle;Max_cycle;Signal;HPM_P1;HPM_P2
2022/06/30 00:02:27;;;;;;;;;;;;;;;20.90;100.00;100446.47;10420933;28;19921;-63
2022/06/30 00:07:32;;;;;;;;;;;;;;;20.91;100.00;100444.69;10420590;28;19968;-61
2022/06/30 00:12:35;;;;;;;;;;;;;;;20.92;100.00;100433.19;10420190;28;19929;-64
2022/06/30 00:17:38;;;;;;;;;;;;;;;20.92;100.00;100426.13;10419727;28;20255;-62
2022/06/30 00:22:42;;;;;;;;;;;;;;;20.90;100.00;100416.63;10420799;28;19963;-66
2022/06/30 00:27:45;;;;;;;;;;;;;;;20.90;100.00;100411.34;10422846;28;19955;-63
2022/06/30 00:32:48;;;;;;;;;;;;;;;20.91;100.00;100413.03;10422749;28;20405;-65
2022/06/30 00:37:53;;;;;;;;;;;;;;;20.88;100.00;100426.38;10422484;28;19932;-66
2022/06/30 00:42:56;;;;;;;;;;;;;;;20.89;100.00;100417.53;10422344;28;19925;-63
2022/06/30 00:48:00;;;;;;;;;;;;;;;20.83;100.00;100416.03;10421868;28;20268;-66
2022/06/30 00:53:05;;;;;;;;;;;;;;;20.80;100.00;100412.72;10422209;28;19955;-65
2022/06/30 00:58:09;;;;;;;;;;;;;;;20.83;100.00;100416.03;10421672;28;20335;-67
2022/06/30 01:03:12;;;;;;;;;;;;;;;20.77;100.00;100412.88;10421523;28;19921;-65
2022/06/30 01:08:17;;;;;;;;;;;;;;;20.73;100.00;100404.25;10421426;28;19921;-62
2022/06/30 01:13:20;;;;;;;;;;;;;;;20.66;100.00;100409.00;10421086;28;19920;-63
2022/06/30 01:18:23;;;;;;;;;;;;;;;20.63;100.00;100408.31;10420407;28;20373;-64
2022/06/30 01:23:27;;;;;;;;;;;;;;;20.55;100.00;100395.47;10420443;28;19927;-65
2022/06/30 01:28:30;;;;;;;;;;;;;;;20.57;100.00;100398.06;10420636;28;19921;-63
2022/06/30 01:33:33;;;;;;;;;;;;;;;20.56;100.00;100401.63;10420194;28;19932;-65
2022/06/30 01:38:38;;;;;;;;;;;;;;;20.51;100.00;100415.06;10420061;28;19943;-66
2022/06/30 01:43:40;;;;;;;;;;;;;;;20.52;100.00;100407.97;10420173;28;19921;-64
2022/06/30 01:48:43;;;;;;;;;;;;;;;20.46;100.00;100395.09;10419847;28;19931;-64
2022/06/30 01:53:48;;;;;;;;;;;;;;;20.41;100.00;100395.34;10419107;28;20397;-63
2022/06/30 01:58:51;;;;;;;;;;;;;;;20.38;100.00;100382.28;10419313;28;19921;-62
2022/06/30 02:03:56;;;;;;;;;;;;;;;20.38;100.00;100392.84;10418580;28;22232;-65
2022/06/30 02:09:00;;;;;;;;;;;;;;;20.32;100.00;100385.25;10419157;28;19925;-63
2022/06/30 02:14:04;;;;;;;;;;;;;;;20.34;100.00;100379.91;10418905;28;19925;-63
2022/06/30 02:19:07;;;;;;;;;;;;;;;20.32;100.00;100389.66;10418362;28;20409;-68
2022/06/30 02:24:11;;;;;;;;;;;;;;;20.31;100.00;100372.97;10418651;28;19935;-63
2022/06/30 02:29:14;;;;;;;;;;;;;;;20.25;100.00;100381.22;10418682;28;19936;-64
2022/06/30 02:34:17;;;;;;;;;;;;;;;20.24;100.00;100373.38;10418427;28;20012;-64
2022/06/30 02:39:22;;;;;;;;;;;;;;;20.27;100.00;100368.81;10418088;28;20011;-62
2022/06/30 02:44:25;;;;;;;;;;;;;;;20.33;100.00;100383.44;10418151;28;19978;-69
2022/06/30 02:49:33;;;;;;;;;;;;;;;20.32;100.00;100400.22;10418087;28;19936;-65
2022/06/30 02:54:37;;;;;;;;;;;;;;;20.29;100.00;100388.03;10417739;28;19935;-67
2022/06/30 02:59:40;;;;;;;;;;;;;;;20.33;100.00;100394.00;10417704;28;19925;-66
2022/06/30 03:04:43;;;;;;;;;;;;;;;20.43;100.00;100401.38;10418311;28;19993;-65
2022/06/30 03:09:48;;;;;;;;;;;;;;;20.51;100.00;100404.50;10425848;28;19929;-65
2022/06/30 03:14:51;;;;;;;;;;;;;;;20.50;100.00;100396.66;10425719;28;19925;-63
2022/06/30 03:19:54;;;;;;;;;;;;;;;20.56;100.00;100386.66;10424998;28;19931;-67
2022/06/30 03:24:59;;;;;;;;;;;;;;;20.61;100.00;100403.09;10425042;28;19931;-62
2022/06/30 03:30:02;;;;;;;;;;;;;;;20.63;100.00;100413.56;10425081;28;20251;-63
2022/06/30 03:35:06;;;;;;;;;;;;;;;20.59;100.00;100417.28;10424781;28;19952;-63
2022/06/30 03:40:11;;;;;;;;;;;;;;;20.64;100.00;100416.13;10424719;28;19978;-64
2022/06/30 03:45:14;;;;;;;;;;;;;;;20.69;100.00;100427.31;10424663;28;19935;-63
2022/06/30 03:50:20;;;;;;;;;;;;;;;20.65;100.00;100422.28;10424241;28;19935;-64
2022/06/30 03:55:24;;;;;;;;;;;;;;;20.73;100.00;100417.44;10424680;28;19925;-61
2022/06/30 04:00:27;;;;;;;;;;;;;;;20.76;100.00;100414.66;10423788;28;19925;-64
2022/06/30 04:05:30;;;;;;;;;;;;;;;20.82;100.00;100424.03;10423672;28;19932;-63
2022/06/30 04:10:35;;;;;;;;;;;;;;;20.82;100.00;100426.69;10423566;28;19925;-62
2022/06/30 04:15:38;;;;;;;;;;;;;;;20.88;100.00;100418.47;10422785;28;19929;-65
2022/06/30 04:20:41;;;;;;;;;;;;;;;20.97;100.00;100415.38;10423368;28;20221;-62
2022/06/30 04:25:45;;;;;;;;;;;;;;;21.04;100.00;100416.75;10422981;28;19925;-62
2022/06/30 04:36:09;;;;;;;;;;;;;;;21.38;100.00;100414.91;10422463;28;19929;-64
2022/06/30 04:41:25;;;;;;;;;;;;;;;21.54;100.00;100407.00;10422071;28;19931;-64
2022/06/30 04:46:29;;;;;;;;;;;;;;;21.73;100.00;100405.06;10422138;28;20355;-63
2022/06/30 04:51:32;;;;;;;;;;;;;;;21.87;100.00;100409.63;10422177;28;19925;-67
2022/06/30 04:56:36;;;;;;;;;;;;;;;21.87;100.00;100409.63;10421751;28;19959;-63
2022/06/30 05:01:39;;;;;;;;;;;;;;;21.99;100.00;100406.28;10421503;28;20252;-63
2022/06/30 05:06:42;;;;;;;;;;;;;;;22.15;100.00;100409.78;10421121;28;19925;-62
2022/06/30 05:11:47;;;;;;;;;;;;;;;22.26;100.00;100400.31;10421442;28;19925;-62
2022/06/30 05:16:50;;;;;;;;;;;;;;;22.37;100.00;100408.50;10420810;28;19925;-64
2022/06/30 05:21:53;;;;;;;;;;;;;;;22.46;100.00;100415.03;10420322;28;19986;-62
2022/06/30 05:26:57;;;;;;;;;;;;;;;22.48;100.00;100415.81;10419961;28;19936;-62
2022/06/30 05:32:00;;;;;;;;;;;;;;;22.64;100.00;100421.94;10420077;28;19925;-63
2022/06/30 05:37:03;;;;;;;;;;;;;;;22.75;100.00;100427.44;10417718;28;19925;-67
2022/06/30 05:42:08;;;;;;;;;;;;;;;22.82;100.00;100421.72;10416746;28;20161;-61
2022/06/30 05:47:11;;;;;;;;;;;;;;;22.88;100.00;100421.34;10068964;28;9999872;-62
2022/06/30 05:52:14;;;;;;;;;;;;;;;22.96;100.00;100423.53;10416546;28;19951;-66
2022/06/30 05:57:18;;;;;;;;;;;;;;;23.06;100.00;100424.69;10416110;28;19925;-63
2022/06/30 06:02:21;;;;;;;;;;;;;;;23.16;100.00;100414.41;10415499;28;20248;-62
2022/06/30 06:07:24;;;;;;;;;;;;;;;23.26;100.00;100405.81;10427716;28;19925;-62
2022/06/30 06:12:28;;;;;;;;;;;;;;;23.45;100.00;100416.16;10420377;28;20078;-62
2022/06/30 06:17:32;;;;;;;;;;;;;;;23.52;100.00;100406.88;10389893;28;20268;-64
2022/06/30 06:22:35;;;;;;;;;;;;;;;23.66;100.00;100406.88;10397069;28;19983;-65
2022/06/30 06:27:39;;;;;;;;;;;;;;;23.79;100.00;100416.59;10414986;28;20385;-65
2022/06/30 06:32:42;;;;;;;;;;;;;;;23.87;100.00;100419.59;10415399;28;19925;-64
2022/06/30 06:37:45;;;;;;;;;;;;;;;23.88;100.00;100405.38;10415157;28;19959;-63
2022/06/30 06:42:50;;;;;;;;;;;;;;;23.90;100.00;100422.03;10427522;28;19925;-65
2022/06/30 06:47:53;;;;;;;;;;;;;;;23.92;100.00;100420.16;10428387;28;19929;-65
2022/06/30 06:52:56;;;;;;;;;;;;;;;24.02;100.00;100416.94;10428268;28;19929;-68
2022/06/30 06:58:00;;;;;;;;;;;;;;;24.08;100.00;100417.41;10428090;28;19925;-62
2022/06/30 07:03:03;;;;;;;;;;;;;;;24.10;100.00;100425.25;10428295;28;19925;-64
2022/06/30 07:08:06;;;;;;;;;;;;;;;24.19;100.00;100412.25;10428601;28;19925;-66
2022/06/30 07:13:11;;;;;;;;;;;;;;;24.31;100.00;100411.47;10428149;28;19925;-64
2022/06/30 07:18:14;;;;;;;;;;;;;;;24.41;100.00;100409.91;10427555;28;19929;-61
2022/06/30 07:23:17;;;;;;;;;;;;;;;24.52;100.00;100417.97;10428524;28;19924;-66
2022/06/30 07:28:36;;;;;;;;;;;;;;;24.51;100.00;100420.75;10427870;28;19935;-65
2022/06/30 07:34:15;;;;;;;;;;;;;;;24.67;100.00;100413.47;10427652;28;20051;-64
2022/06/30 07:39:19;;;;;;;;;;;;;;;24.83;100.00;100419.50;10427488;28;19945;-64
2022/06/30 07:44:59;;;;;;;;;;;;;;;24.89;100.00;100419.91;10455411;28;19925;-66
2022/06/30 07:50:38;;;;;;;;;;;;;;;25.01;100.00;100437.69;10425410;28;19929;-62
2022/06/30 07:55:40;;;;;;;;;;;;;;;25.08;100.00;100443.41;10421121;28;19929;-64
2022/06/30 08:00:45;;;;;;;;;;;;;;;25.13;100.00;100442.16;10420467;28;19925;-62
2022/06/30 08:05:48;;;;;;;;;;;;;;;25.27;100.00;100448.31;10420411;28;19935;-68
2022/06/30 08:10:52;;;;;;;;;;;;;;;25.37;100.00;100434.31;10420994;28;19925;-63
2022/06/30 08:16:00;;;;;;;;;;;;;;;25.62;100.00;100438.75;10423480;28;19925;-67
2022/06/30 08:21:03;;;;;;;;;;;;;;;25.78;100.00;100453.50;10423183;28;20336;-67
2022/06/30 08:26:06;;;;;;;;;;;;;;;25.88;100.00;100451.91;10422820;28;19925;-66
2022/06/30 08:31:11;;;;;;;;;;;;;;;26.05;100.00;100445.41;10422992;28;19933;-66
2022/06/30 08:36:14;;;;;;;;;;;;;;;26.16;100.00;100441.00;10422930;28;19925;-67
2022/06/30 08:46:39;;;;;;;;;;;;;;;26.52;100.00;100437.44;10422012;28;19929;-64
2022/06/30 08:51:44;;;;;;;;;;;;;;;26.59;100.00;100433.38;10422126;28;20251;-66
2022/06/30 08:56:47;;;;;;;;;;;;;;;26.64;100.00;100427.69;10421546;28;20028;-68
2022/06/30 09:01:55;;;;;;;;;;;;;;;26.66;100.00;100415.94;10420775;28;20474;-66
2022/06/30 09:06:58;;;;;;;;;;;;;;;26.71;100.00;100410.31;10420787;28;19935;-63
2022/06/30 09:12:01;;;;;;;;;;;;;;;26.84;100.00;100414.59;10421832;28;20255;-66
2022/06/30 09:17:07;;;;;;;;;;;;;;;26.90;100.00;100398.16;10420511;28;19925;-65
2022/06/30 09:22:14;;;;;;;;;;;;;;;26.98;100.00;100394.88;10420568;28;19936;-64
2022/06/30 09:27:19;;;;;;;;;;;;;;;26.95;100.00;100395.13;10420385;28;19959;-66
2022/06/30 09:32:24;;;;;;;;;;;;;;;27.14;100.00;100385.59;10420229;28;19990;-65
2022/06/30 09:37:27;;;;;;;;;;;;;;;27.36;100.00;100378.59;10419993;28;19925;-67
2022/06/30 09:42:37;;;;;;;;;;;;;;;27.37;100.00;100380.31;10419838;28;19936;-65
2022/06/30 09:47:57;;;;;;;;;;;;;;;27.56;100.00;100384.03;10460020;28;20365;-66
2022/06/30 09:53:18;;;;;;;;;;;;;;;27.99;96.73;100376.13;10450210;28;19925;-65
2022/06/30 09:58:35;;;;;;;;;;;;;;;28.16;97.55;100365.75;10419389;28;19929;-64
2022/06/30 10:03:46;;;;;;;;;;;;;;;28.80;95.09;100349.69;10419059;28;19935;-68
2022/06/30 10:08:49;;;;;;;;;;;;;;;29.54;89.86;100352.06;10418612;28;19935;-69
2022/06/30 10:13:52;;;;;;;;;;;;;;;30.12;86.33;100340.50;10071634;28;10000224;-67
2022/06/30 10:18:58;;;;;;;;;;;;;;;30.45;85.33;100341.94;10456504;28;19929;-65
2022/06/30 10:24:01;;;;;;;;;;;;;;;30.70;83.61;100333.34;10456279;28;19944;-69
2022/06/30 10:29:04;;;;;;;;;;;;;;;31.12;82.12;100331.09;10418822;28;19935;-66
2022/06/30 10:34:13;;;;;;;;;;;;;;;31.38;81.63;100335.69;10415225;28;19956;-66
2022/06/30 10:39:25;;;;;;;;;;;;;;;31.98;77.53;100326.16;10414778;28;19990;-68
2022/06/30 10:44:29;;;;;;;;;;;;;;;32.30;75.07;100314.91;10415319;28;19925;-68
2022/06/30 10:49:58;;;;;;;;;;;;;;;32.76;72.46;100306.53;10414756;28;19929;-66
2022/06/30 10:55:06;;;;;;;;;;;;;;;33.09;72.02;100304.91;10414705;28;19925;-70
2022/06/30 11:00:30;;;;;;;;;;;;;;;33.00;73.45;100312.09;10414705;28;20015;-66
2022/06/30 11:05:48;;;;;;;;;;;;;;;33.52;71.37;100304.78;10414479;28;20015;-66
2022/06/30 11:10:52;;;;;;;;;;;;;;;33.80;68.38;100296.31;10414382;28;19936;-67
2022/06/30 11:15:57;;;;;;;;;;;;;;;34.24;68.39;100287.97;10426960;28;19925;-67
2022/06/30 11:21:02;;;;;;;;;;;;;;;34.43;67.50;100284.97;10455370;28;19924;-66
2022/06/30 11:31:30;;;;;;;;;;;;;;;35.13;63.45;100275.22;10462918;28;19931;-68
2022/06/30 11:36:36;;;;;;;;;;;;;;;35.74;59.83;100267.16;10462639;28;19936;-66
2022/06/30 11:41:59;;;;;;;;;;;;;;;35.88;58.85;100269.09;10463615;28;20255;-69
2022/06/30 11:47:04;;;;;;;;;;;;;;;36.30;56.27;100257.78;10462037;28;19925;-67
2022/06/30 11:52:14;;;;;;;;;;;;;;;36.40;57.04;100259.25;10462114;28;19925;-66
2022/06/30 11:57:17;;;;;;;;;;;;;;;36.94;53.73;100259.91;10461747;28;20378;-67
2022/06/30 12:02:28;;;;;;;;;;;;;;;37.49;52.05;100254.81;10461572;28;19991;-66
2022/06/30 12:07:33;;;;;;;;;;;;;;;37.60;52.40;100248.91;10461052;28;19925;-67
2022/06/30 12:12:39;;;;;;;;;;;;;;;36.56;53.98;100248.28;10461448;28;19960;-66
2022/06/30 12:17:43;;;;;;;;;;;;;;;35.83;55.89;100239.03;10425575;28;19935;-65
2022/06/30 12:22:48;;;;;;;;;;;;;;;36.37;55.64;100237.13;10419820;28;19928;-67
2022/06/30 12:27:52;;;;;;;;;;;;;;;36.72;53.29;100241.84;10419491;28;19931;-66
2022/06/30 12:32:56;;;;;;;;;;;;;;;36.86;52.22;100232.94;10419495;28;19961;-68
2022/06/30 12:38:11;;;;;;;;;;;;;;;36.81;51.63;100227.25;10419081;28;19929;-64
2022/06/30 12:43:14;;;;;;;;;;;;;;;37.09;52.04;100225.53;10418819;28;20380;-66
2022/06/30 12:48:32;;;;;;;;;;;;;;;37.29;50.49;100221.25;10418770;28;20237;-67
2022/06/30 12:53:38;;;;;;;;;;;;;;;37.31;50.67;100215.63;10418271;28;19939;-66
2022/06/30 12:59:01;;;;;;;;;;;;;;;37.41;47.45;100211.59;10418473;28;19929;-66
2022/06/30 13:04:18;;;;;;;;;;;;;;;37.11;49.34;100209.94;10416143;28;20324;-68
2022/06/30 13:09:24;;;;;;;;;;;;;;;37.01;49.66;100207.53;10417791;28;19925;-66
2022/06/30 13:14:29;;;;;;;;;;;;;;;36.94;49.27;100209.31;10417997;28;19925;-64
2022/06/30 13:19:32;;;;;;;;;;;;;;;37.22;47.80;100206.75;10417414;28;20414;-68
2022/06/30 13:24:37;;;;;;;;;;;;;;;36.65;48.00;100213.84;10417021;28;19929;-68
2022/06/30 13:29:40;;;;;;;;;;;;;;;36.23;47.35;100200.91;10417470;28;19933;-67
2022/06/30 13:35:02;;;;;;;;;;;;;;;36.63;49.66;100213.19;10417041;28;19926;-70
2022/06/30 13:40:07;;;;;;;;;;;;;;;35.64;51.95;100218.75;10416559;28;19925;-65
2022/06/30 13:45:10;;;;;;;;;;;;;;;35.64;52.96;100215.19;10416833;28;20335;-67
2022/06/30 13:50:13;;;;;;;;;;;;;;;35.28;53.66;100216.75;10444026;28;19925;-66
2022/06/30 13:55:18;;;;;;;;;;;;;;;34.43;55.45;100204.06;10457230;28;19925;-67
2022/06/30 14:00:21;;;;;;;;;;;;;;;34.98;55.42;100207.63;10456556;28;19986;-67
2022/06/30 14:05:24;;;;;;;;;;;;;;;35.67;54.21;100199.47;10456987;28;20019;-68
2022/06/30 14:10:28;;;;;;;;;;;;;;;35.98;52.83;100202.97;10456467;28;19978;-66
2022/06/30 14:15:31;;;;;;;;;;;;;;;35.73;52.49;100201.47;10439299;28;20326;-71
2022/06/30 14:20:34;;;;;;;;;;;;;;;35.88;51.76;100185.31;10415070;28;19929;-69
2022/06/30 14:25:48;;;;;;;;;;;;;;;35.99;52.09;100188.47;10415561;28;19925;-68
2022/06/30 14:30:55;;;;;;;;;;;;;;;35.98;51.20;100189.47;10415298;28;19943;-65
2022/06/30 14:35:58;;;;;;;;;;;;;;;35.85;51.97;100188.38;10414754;28;19925;-70
2022/06/30 14:41:02;;;;;;;;;;;;;;;35.66;52.35;100187.00;10414928;28;19929;-66
2022/06/30 14:46:08;;;;;;;;;;;;;;;35.47;53.06;100179.38;10414754;28;19936;-67
2022/06/30 14:51:11;;;;;;;;;;;;;;;35.26;53.98;100170.22;10414614;28;19925;-68
2022/06/30 14:56:33;;;;;;;;;;;;;;;34.74;55.15;100172.63;10414814;28;19929;-67
2022/06/30 15:01:35;;;;;;;;;;;;;;;34.51;55.89;100160.91;10418126;28;20050;-68
2022/06/30 15:06:39;;;;;;;;;;;;;;;34.26;57.31;100159.22;10422696;28;19929;-68
2022/06/30 15:11:44;;;;;;;;;;;;;;;34.09;56.41;100146.78;10422525;28;20255;-66
2022/06/30 15:16:48;;;;;;;;;;;;;;;33.76;57.42;100157.56;10422679;28;19937;-68
2022/06/30 15:27:12;;;;;;;;;;;;;;;33.32;58.59;100171.47;10425204;28;20255;-67
2022/06/30 15:32:17;;;;;;;;;;;;;;;33.27;58.93;100160.34;10424886;28;19939;-67
2022/06/30 15:37:20;;;;;;;;;;;;;;;33.21;59.76;100156.47;10424857;28;19967;-64
2022/06/30 15:42:25;;;;;;;;;;;;;;;33.07;60.73;100165.16;10424463;28;20364;-65
2022/06/30 15:47:30;;;;;;;;;;;;;;;33.06;61.15;100165.34;10423317;28;20008;-68
2022/06/30 15:52:33;;;;;;;;;;;;;;;32.93;60.60;100167.66;10424136;28;19925;-67
2022/06/30 15:57:39;;;;;;;;;;;;;;;32.73;61.58;100172.41;10423764;28;20336;-65
2022/06/30 16:02:42;;;;;;;;;;;;;;;32.51;61.46;100178.34;10423813;28;19935;-68
2022/06/30 16:07:45;;;;;;;;;;;;;;;32.43;62.18;100194.41;10423715;28;19939;-65
2022/06/30 16:12:50;;;;;;;;;;;;;;;32.31;60.13;100198.31;10423032;28;19931;-68
2022/06/30 16:17:53;;;;;;;;;;;;;;;32.13;61.74;100201.09;10422822;28;19974;-70
2022/06/30 16:22:56;;;;;;;;;;;;;;;31.92;62.53;100215.81;10422816;28;19935;-65
2022/06/30 16:28:01;;;;;;;;;;;;;;;31.59;65.77;100223.56;10422872;28;20070;-67
2022/06/30 16:33:04;;;;;;;;;;;;;;;31.35;66.33;100236.72;10422655;28;19935;-68
2022/06/30 16:38:07;;;;;;;;;;;;;;;31.36;64.86;100254.50;10422134;28;19925;-68
2022/06/30 16:43:11;;;;;;;;;;;;;;;30.93;63.52;100273.03;10421794;28;19931;-66
2022/06/30 16:48:16;;;;;;;;;;;;;;;30.55;63.97;100282.00;10422063;28;19925;-66
2022/06/30 16:53:19;;;;;;;;;;;;;;;30.25;62.51;100278.66;10421936;28;19952;-68
2022/06/30 16:58:23;;;;;;;;;;;;;;;29.99;61.22;100280.19;10421312;28;20008;-68
2022/06/30 17:03:26;;;;;;;;;;;;;;;29.77;60.75;100285.81;10071156;28;10000058;-68
2022/06/30 17:08:30;;;;;;;;;;;;;;;29.49;60.32;100298.94;10418216;28;19982;-66
2022/06/30 17:13:34;;;;;;;;;;;;;;;29.26;62.26;100297.47;10417719;28;19967;-66
2022/06/30 17:18:37;;;;;;;;;;;;;;;28.87;61.77;100306.25;10417557;28;19929;-67
2022/06/30 17:23:41;;;;;;;;;;;;;;;28.65;62.51;100282.38;10416535;28;19948;-67
2022/06/30 17:28:45;;;;;;;;;;;;;;;28.41;66.06;100265.75;10417128;28;20027;-67
2022/06/30 17:33:48;;;;;;;;;;;;;;;28.27;71.08;100244.69;10417458;28;20016;-68
2022/06/30 17:38:51;;;;;;;;;;;;;;;28.00;72.58;100241.69;10417111;28;20028;-67
2022/06/30 17:44:00;;;;;;;;;;;;;;;27.66;78.21;100240.13;10068233;28;10000136;-65
2022/06/30 17:49:03;;;;;;;;;;;;;;;27.15;70.76;100229.16;10414255;28;19933;-62
2022/06/30 17:54:07;;;;;;;;;;;;;;;26.98;73.76;100233.19;10413381;28;19971;-61
2022/06/30 17:59:11;;;;;;;;;;;;;;;26.76;75.20;100258.97;10413319;28;19940;-65
2022/06/30 18:04:14;;;;;;;;;;;;;;;26.75;75.91;100268.78;10414105;28;19929;-65
2022/06/30 18:14:40;;;;;;;;;;;;;;;26.47;81.41;100314.47;10412836;28;19987;-64
2022/06/30 18:19:43;;;;;;;;;;;;;;;26.45;81.16;100315.53;10413098;28;19929;-61
2022/06/30 18:24:47;;;;;;;;;;;;;;;26.38;81.30;100315.16;10412103;28;19933;-64
2022/06/30 18:29:51;;;;;;;;;;;;;;;26.36;80.83;100300.25;10412277;28;20275;-61
2022/06/30 18:34:58;;;;;;;;;;;;;;;26.26;78.93;100304.59;10412596;28;19939;-57
2022/06/30 18:40:01;;;;;;;;;;;;;;;26.23;76.67;100300.38;10412216;28;20367;-61
2022/06/30 18:45:06;;;;;;;;;;;;;;;26.27;73.62;100277.84;10411703;28;19925;-63
2022/06/30 18:50:09;;;;;;;;;;;;;;;26.23;71.88;100257.78;10412827;28;20314;-60
2022/06/30 18:55:13;;;;;;;;;;;;;;;26.17;70.66;100240.47;10412607;28;20333;-60
2022/06/30 19:00:18;;;;;;;;;;;;;;;26.16;68.90;100237.91;10411686;28;19929;-62
2022/06/30 19:05:21;;;;;;;;;;;;;;;26.09;69.13;100240.16;10412085;28;19925;-68
2022/06/30 19:10:25;;;;;;;;;;;;;;;25.96;70.30;100241.19;10412240;28;19929;-66
2022/06/30 19:15:29;;;;;;;;;;;;;;;25.83;71.33;100240.41;10411159;28;20024;-65
2022/06/30 19:20:32;;;;;;;;;;;;;;;25.73;72.61;100245.56;10410845;28;19939;-68
2022/06/30 19:25:35;;;;;;;;;;;;;;;25.67;72.54;100245.16;10411776;28;19929;-71
2022/06/30 19:30:39;;;;;;;;;;;;;;;25.54;73.74;100249.72;10411018;28;19933;-66
2022/06/30 19:35:43;;;;;;;;;;;;;;;25.39;74.77;100242.81;10410910;28;19936;-68
2022/06/30 19:40:46;;;;;;;;;;;;;;;25.30;74.24;100256.78;10411856;28;19975;-61
2022/06/30 19:45:50;;;;;;;;;;;;;;;25.27;75.79;100241.03;10410877;28;19929;-60
2022/06/30 19:50:53;;;;;;;;;;;;;;;25.11;75.57;100239.47;10417444;28;19925;-61
2022/06/30 19:55:57;;;;;;;;;;;;;;;25.00;76.87;100251.84;10418230;28;19929;-61
2022/06/30 20:01:01;;;;;;;;;;;;;;;24.93;77.02;100248.78;10418157;28;19960;-67
2022/06/30 20:06:10;;;;;;;;;;;;;;;24.88;76.92;100242.94;10417598;28;19929;-62
2022/06/30 20:11:28;;;;;;;;;;;;;;;24.86;77.56;100244.00;10417240;28;20263;-62
2022/06/30 20:16:33;;;;;;;;;;;;;;;24.73;77.49;100249.31;10417957;28;20235;-64
2022/06/30 20:21:36;;;;;;;;;;;;;;;24.69;79.08;100234.56;10416775;28;20024;-61
2022/06/30 20:26:43;;;;;;;;;;;;;;;24.59;79.93;100244.06;10417531;28;19925;-62
2022/06/30 20:31:48;;;;;;;;;;;;;;;24.54;79.58;100250.69;10422615;28;19931;-64
2022/06/30 20:36:51;;;;;;;;;;;;;;;24.52;80.35;100247.28;10422577;28;20260;-61
2022/06/30 20:41:54;;;;;;;;;;;;;;;24.48;78.30;100251.94;10422146;28;19925;-61
2022/06/30 20:46:58;;;;;;;;;;;;;;;24.42;78.59;100262.97;10422109;28;19929;-65
2022/06/30 20:52:01;;;;;;;;;;;;;;;24.44;79.60;100258.41;10421614;28;19990;-59
2022/06/30 20:57:05;;;;;;;;;;;;;;;24.41;80.80;100257.78;10421676;28;20011;-63
2022/06/30 21:02:11;;;;;;;;;;;;;;;24.34;80.42;100267.97;10421266;28;19975;-65
2022/06/30 21:07:14;;;;;;;;;;;;;;;24.34;80.59;100253.84;10421411;28;19925;-64
2022/06/30 21:12:17;;;;;;;;;;;;;;;24.27;81.28;100253.41;10421266;28;20349;-62
2022/06/30 21:17:21;;;;;;;;;;;;;;;24.25;82.87;100263.28;10420756;28;19925;-64
2022/06/30 21:22:24;;;;;;;;;;;;;;;24.21;83.60;100269.75;10420991;28;19990;-62
2022/06/30 21:27:27;;;;;;;;;;;;;;;24.19;83.08;100282.28;10420308;28;19936;-63
2022/06/30 21:32:32;;;;;;;;;;;;;;;24.18;83.38;100282.38;10420338;28;20016;-66
2022/06/30 21:37:35;;;;;;;;;;;;;;;24.12;82.00;100299.56;10420233;28;19925;-65
2022/06/30 21:42:38;;;;;;;;;;;;;;;24.10;81.12;100301.44;10416100;28;19939;-68
2022/06/30 21:47:42;;;;;;;;;;;;;;;24.09;82.67;100297.06;10413441;28;20457;-65
2022/06/30 21:52:45;;;;;;;;;;;;;;;24.06;83.04;100307.91;10413753;28;19925;-64
2022/06/30 21:57:48;;;;;;;;;;;;;;;24.06;83.07;100305.25;10066788;28;10000620;-66
2022/06/30 22:02:53;;;;;;;;;;;;;;;24.03;82.67;100310.75;10413049;28;19929;-65
2022/06/30 22:07:56;;;;;;;;;;;;;;;23.98;84.33;100304.88;10412997;28;19936;-65
2022/06/30 22:12:59;;;;;;;;;;;;;;;23.96;84.42;100302.34;10413092;28;19983;-64
2022/06/30 22:18:04;;;;;;;;;;;;;;;23.92;85.00;100306.13;10412762;28;20331;-66
2022/06/30 22:23:07;;;;;;;;;;;;;;;23.86;85.72;100305.69;10413042;28;19929;-65
2022/06/30 22:28:10;;;;;;;;;;;;;;;23.85;83.80;100309.28;10413343;28;20483;-65
2022/06/30 22:33:14;;;;;;;;;;;;;;;23.83;83.58;100306.72;10413375;28;19936;-66
2022/06/30 22:38:17;;;;;;;;;;;;;;;23.77;84.55;100311.59;10415888;28;19932;-69
2022/06/30 22:43:20;;;;;;;;;;;;;;;23.71;83.44;100315.47;10418063;28;20358;-62
2022/06/30 22:48:24;;;;;;;;;;;;;;;23.65;84.67;100307.06;10418227;28;19939;-62
2022/06/30 22:53:27;;;;;;;;;;;;;;;23.60;84.76;100299.44;10417976;28;19991;-64
2022/06/30 22:58:30;;;;;;;;;;;;;;;23.58;84.66;100296.03;10417766;28;19935;-66
2022/06/30 23:03:35;;;;;;;;;;;;;;;23.55;86.18;100290.06;10417644;28;19948;-66
2022/06/30 23:08:38;;;;;;;;;;;;;;;23.52;87.47;100299.06;10417721;28;19925;-67
2022/06/30 23:13:41;;;;;;;;;;;;;;;23.52;87.21;100295.56;10418155;28;20362;-64
2022/06/30 23:18:46;;;;;;;;;;;;;;;23.54;87.56;100288.38;10416198;28;20271;-65
2022/06/30 23:23:49;;;;;;;;;;;;;;;23.63;87.70;100287.75;10415401;28;19929;-66
2022/06/30 23:28:52;;;;;;;;;;;;;;;23.60;88.79;100294.13;10420056;28;19924;-68
2022/06/30 23:33:56;;;;;;;;;;;;;;;23.65;89.39;100288.53;10419302;28;19935;-65
2022/06/30 23:38:59;;;;;;;;;;;;;;;23.69;90.51;100297.97;10071243;28;10000347;-65
2022/06/30 23:44:02;;;;;;;;;;;;;;;23.70;90.42;100289.94;10418520;28;19929;-65
2022/06/30 23:49:06;;;;;;;;;;;;;;;23.69;91.18;100305.94;10419237;28;19925;-64
2022/06/30 23:54:09;;;;;;;;;;;;;;;23.66;92.35;100308.78;10418747;28;20277;-66
2022/06/30 23:59:14;;;;;;;;;;;;;;;23.60;93.76;100298.56;10418348;28;19929;-69
